sensor_id;sensor_type;location;lat;lon;timestamp;P1;durP1;ratioP1;P2;durP2;ratioP2
6679;SDS011;3376;42.664;23.346;2023-01-29T00:01:27;8.93;;;7.60;;
6679;SDS011;3376;42.664;23.346;2023-01-29T00:03:55;9.77;;;8.77;;
6679;SDS011;3376;42.664;23.346;2023-01-29T00:06:22;7.93;;;7.33;;
6679;SDS011;3376;42.664;23.346;2023-01-29T00:08:48;10.10;;;9.40;;
6679;SDS011;3376;42.664;23.346;2023-01-29T00:11:15;10.90;;;10.10;;
6679;SDS011;3376;42.664;23.346;2023-01-29T00:13:42;11.53;;;10.60;;
6679;SDS011;3376;42.664;23.346;2023-01-29T00:16:09;10.60;;;9.00;;
6679;SDS011;3376;42.664;23.346;2023-01-29T00:18:38;8.80;;;8.20;;
6679;SDS011;3376;42.664;23.346;2023-01-29T00:21:07;8.80;;;8.03;;
6679;SDS011;3376;42.664;23.346;2023-01-29T00:23:34;9.97;;;9.17;;
6679;SDS011;3376;42.664;23.346;2023-01-29T00:26:01;9.93;;;8.93;;
6679;SDS011;3376;42.664;23.346;2023-01-29T00:28:28;9.40;;;8.67;;
6679;SDS011;3376;42.664;23.346;2023-01-29T00:30:54;9.77;;;9.00;;
6679;SDS011;3376;42.664;23.346;2023-01-29T00:33:21;9.90;;;8.90;;
6679;SDS011;3376;42.664;23.346;2023-01-29T00:35:49;9.23;;;8.53;;
6679;SDS011;3376;42.664;23.346;2023-01-29T00:38:16;9.23;;;8.43;;
6679;SDS011;3376;42.664;23.346;2023-01-29T00:40:42;9.27;;;8.57;;
6679;SDS011;3376;42.664;23.346;2023-01-29T00:43:27;9.73;;;8.90;;
6679;SDS011;3376;42.664;23.346;2023-01-29T00:46:10;9.10;;;8.40;;
6679;SDS011;3376;42.664;23.346;2023-01-29T00:48:37;8.37;;;7.77;;
6679;SDS011;3376;42.664;23.346;2023-01-29T00:51:05;8.80;;;8.10;;
6679;SDS011;3376;42.664;23.346;2023-01-29T00:53:32;8.40;;;7.80;;
6679;SDS011;3376;42.664;23.346;2023-01-29T00:55:59;8.37;;;7.73;;
6679;SDS011;3376;42.664;23.346;2023-01-29T00:58:25;7.40;;;6.90;;
6679;SDS011;3376;42.664;23.346;2023-01-29T01:00:58;8.33;;;7.63;;
6679;SDS011;3376;42.664;23.346;2023-01-29T01:03:26;8.87;;;8.03;;
6679;SDS011;3376;42.664;23.346;2023-01-29T01:06:01;10.43;;;9.00;;
6679;SDS011;3376;42.664;23.346;2023-01-29T01:08:30;8.57;;;7.97;;
6679;SDS011;3376;42.664;23.346;2023-01-29T01:11:14;9.93;;;9.13;;
6679;SDS011;3376;42.664;23.346;2023-01-29T01:13:40;9.00;;;8.27;;
6679;SDS011;3376;42.664;23.346;2023-01-29T01:16:08;9.17;;;8.40;;
6679;SDS011;3376;42.664;23.346;2023-01-29T01:18:35;8.90;;;8.20;;
6679;SDS011;3376;42.664;23.346;2023-01-29T01:21:02;9.67;;;8.20;;
6679;SDS011;3376;42.664;23.346;2023-01-29T01:23:31;8.77;;;8.10;;
6679;SDS011;3376;42.664;23.346;2023-01-29T01:25:58;8.90;;;8.07;;
6679;SDS011;3376;42.664;23.346;2023-01-29T01:28:26;8.93;;;8.23;;
6679;SDS011;3376;42.664;23.346;2023-01-29T01:30:53;9.87;;;9.27;;
6679;SDS011;3376;42.664;23.346;2023-01-29T01:33:19;9.70;;;8.93;;
6679;SDS011;3376;42.664;23.346;2023-01-29T01:35:46;10.27;;;9.67;;
6679;SDS011;3376;42.664;23.346;2023-01-29T01:38:13;12.83;;;11.47;;
6679;SDS011;3376;42.664;23.346;2023-01-29T01:40:44;10.17;;;9.47;;
6679;SDS011;3376;42.664;23.346;2023-01-29T01:43:11;9.77;;;9.07;;
6679;SDS011;3376;42.664;23.346;2023-01-29T01:45:38;9.63;;;8.93;;
6679;SDS011;3376;42.664;23.346;2023-01-29T01:48:07;8.83;;;8.23;;
6679;SDS011;3376;42.664;23.346;2023-01-29T01:50:38;7.17;;;6.50;;
6679;SDS011;3376;42.664;23.346;2023-01-29T01:53:11;7.67;;;7.17;;
6679;SDS011;3376;42.664;23.346;2023-01-29T01:55:40;9.30;;;8.53;;
6679;SDS011;3376;42.664;23.346;2023-01-29T01:58:14;8.73;;;8.10;;
6679;SDS011;3376;42.664;23.346;2023-01-29T02:00:44;9.50;;;8.70;;
6679;SDS011;3376;42.664;23.346;2023-01-29T02:03:11;9.20;;;8.60;;
6679;SDS011;3376;42.664;23.346;2023-01-29T02:05:56;8.20;;;7.77;;
6679;SDS011;3376;42.664;23.346;2023-01-29T02:08:43;8.70;;;8.20;;
6679;SDS011;3376;42.664;23.346;2023-01-29T02:11:32;8.93;;;8.07;;
6679;SDS011;3376;42.664;23.346;2023-01-29T02:14:00;7.73;;;7.13;;
6679;SDS011;3376;42.664;23.346;2023-01-29T02:16:27;7.03;;;6.53;;
6679;SDS011;3376;42.664;23.346;2023-01-29T02:18:54;7.13;;;6.70;;
6679;SDS011;3376;42.664;23.346;2023-01-29T02:21:27;7.80;;;7.30;;
6679;SDS011;3376;42.664;23.346;2023-01-29T02:24:22;9.30;;;8.70;;
6679;SDS011;3376;42.664;23.346;2023-01-29T02:27:05;8.30;;;7.70;;
6679;SDS011;3376;42.664;23.346;2023-01-29T02:29:38;7.43;;;6.83;;
6679;SDS011;3376;42.664;23.346;2023-01-29T02:32:15;8.57;;;7.97;;
6679;SDS011;3376;42.664;23.346;2023-01-29T02:34:52;8.90;;;8.30;;
6679;SDS011;3376;42.664;23.346;2023-01-29T02:37:50;8.23;;;7.73;;
6679;SDS011;3376;42.664;23.346;2023-01-29T02:40:24;8.30;;;7.70;;
6679;SDS011;3376;42.664;23.346;2023-01-29T02:42:57;8.43;;;7.83;;
6679;SDS011;3376;42.664;23.346;2023-01-29T02:45:33;8.57;;;8.07;;
6679;SDS011;3376;42.664;23.346;2023-01-29T02:48:07;7.97;;;7.20;;
6679;SDS011;3376;42.664;23.346;2023-01-29T02:50:42;9.40;;;8.57;;
6679;SDS011;3376;42.664;23.346;2023-01-29T02:53:15;8.07;;;7.57;;
6679;SDS011;3376;42.664;23.346;2023-01-29T02:55:45;7.37;;;6.77;;
6679;SDS011;3376;42.664;23.346;2023-01-29T02:58:18;7.07;;;6.50;;
6679;SDS011;3376;42.664;23.346;2023-01-29T03:00:52;6.67;;;6.17;;
6679;SDS011;3376;42.664;23.346;2023-01-29T03:03:24;7.47;;;6.93;;
6679;SDS011;3376;42.664;23.346;2023-01-29T03:05:57;7.90;;;7.37;;
6679;SDS011;3376;42.664;23.346;2023-01-29T03:08:30;8.73;;;8.23;;
6679;SDS011;3376;42.664;23.346;2023-01-29T03:11:10;8.63;;;8.03;;
6679;SDS011;3376;42.664;23.346;2023-01-29T03:13:40;9.97;;;9.27;;
6679;SDS011;3376;42.664;23.346;2023-01-29T03:16:17;8.80;;;8.27;;
6679;SDS011;3376;42.664;23.346;2023-01-29T03:18:52;8.17;;;7.63;;
6679;SDS011;3376;42.664;23.346;2023-01-29T03:21:24;8.00;;;7.50;;
6679;SDS011;3376;42.664;23.346;2023-01-29T03:24:12;8.20;;;6.90;;
6679;SDS011;3376;42.664;23.346;2023-01-29T03:26:57;7.85;;;7.35;;
6679;SDS011;3376;42.664;23.346;2023-01-29T03:29:46;8.47;;;7.97;;
6679;SDS011;3376;42.664;23.346;2023-01-29T03:32:34;7.27;;;6.77;;
6679;SDS011;3376;42.664;23.346;2023-01-29T03:35:02;7.95;;;7.45;;
6679;SDS011;3376;42.664;23.346;2023-01-29T03:37:32;7.05;;;6.63;;
6679;SDS011;3376;42.664;23.346;2023-01-29T03:40:04;6.03;;;5.73;;
6679;SDS011;3376;42.664;23.346;2023-01-29T03:42:37;6.43;;;6.00;;
6679;SDS011;3376;42.664;23.346;2023-01-29T03:45:15;6.13;;;5.83;;
6679;SDS011;3376;42.664;23.346;2023-01-29T03:47:49;6.07;;;5.67;;
6679;SDS011;3376;42.664;23.346;2023-01-29T03:50:30;6.00;;;5.60;;
6679;SDS011;3376;42.664;23.346;2023-01-29T03:53:03;6.80;;;6.40;;
6679;SDS011;3376;42.664;23.346;2023-01-29T03:55:36;6.37;;;6.07;;
6679;SDS011;3376;42.664;23.346;2023-01-29T03:58:11;5.50;;;5.20;;
6679;SDS011;3376;42.664;23.346;2023-01-29T04:00:48;6.00;;;5.53;;
6679;SDS011;3376;42.664;23.346;2023-01-29T04:03:23;5.70;;;5.40;;
6679;SDS011;3376;42.664;23.346;2023-01-29T04:05:57;5.60;;;5.30;;
6679;SDS011;3376;42.664;23.346;2023-01-29T04:08:35;5.43;;;5.03;;
6679;SDS011;3376;42.664;23.346;2023-01-29T04:11:07;4.83;;;4.57;;
6679;SDS011;3376;42.664;23.346;2023-01-29T04:13:39;5.93;;;5.53;;
6679;SDS011;3376;42.664;23.346;2023-01-29T04:16:07;5.70;;;5.30;;
6679;SDS011;3376;42.664;23.346;2023-01-29T04:18:39;5.43;;;5.13;;
6679;SDS011;3376;42.664;23.346;2023-01-29T04:21:09;6.13;;;5.73;;
6679;SDS011;3376;42.664;23.346;2023-01-29T04:23:36;5.30;;;4.97;;
6679;SDS011;3376;42.664;23.346;2023-01-29T04:26:08;6.27;;;5.77;;
6679;SDS011;3376;42.664;23.346;2023-01-29T04:28:50;5.17;;;4.87;;
6679;SDS011;3376;42.664;23.346;2023-01-29T04:31:25;6.00;;;5.70;;
6679;SDS011;3376;42.664;23.346;2023-01-29T04:34:01;5.83;;;5.60;;
6679;SDS011;3376;42.664;23.346;2023-01-29T04:36:40;5.10;;;4.90;;
6679;SDS011;3376;42.664;23.346;2023-01-29T04:39:17;5.23;;;4.83;;
6679;SDS011;3376;42.664;23.346;2023-01-29T04:41:48;5.57;;;5.27;;
6679;SDS011;3376;42.664;23.346;2023-01-29T04:44:19;5.13;;;4.83;;
6679;SDS011;3376;42.664;23.346;2023-01-29T04:46:51;5.97;;;5.53;;
6679;SDS011;3376;42.664;23.346;2023-01-29T04:49:31;4.73;;;4.53;;
6679;SDS011;3376;42.664;23.346;2023-01-29T04:52:04;5.30;;;5.00;;
6679;SDS011;3376;42.664;23.346;2023-01-29T04:54:41;5.33;;;5.03;;
6679;SDS011;3376;42.664;23.346;2023-01-29T04:57:18;5.43;;;5.03;;
6679;SDS011;3376;42.664;23.346;2023-01-29T04:59:52;5.20;;;4.90;;
6679;SDS011;3376;42.664;23.346;2023-01-29T05:02:25;5.70;;;5.40;;
6679;SDS011;3376;42.664;23.346;2023-01-29T05:04:54;4.80;;;4.40;;
6679;SDS011;3376;42.664;23.346;2023-01-29T05:07:23;6.00;;;5.70;;
6679;SDS011;3376;42.664;23.346;2023-01-29T05:09:53;4.57;;;4.30;;
6679;SDS011;3376;42.664;23.346;2023-01-29T05:12:21;5.33;;;5.03;;
6679;SDS011;3376;42.664;23.346;2023-01-29T05:14:51;5.10;;;4.90;;
6679;SDS011;3376;42.664;23.346;2023-01-29T05:17:21;5.00;;;4.70;;
6679;SDS011;3376;42.664;23.346;2023-01-29T05:19:48;4.73;;;4.53;;
6679;SDS011;3376;42.664;23.346;2023-01-29T05:22:17;4.03;;;3.83;;
6679;SDS011;3376;42.664;23.346;2023-01-29T05:24:46;5.37;;;5.17;;
6679;SDS011;3376;42.664;23.346;2023-01-29T05:27:15;4.87;;;4.67;;
6679;SDS011;3376;42.664;23.346;2023-01-29T05:30:01;5.00;;;4.80;;
6679;SDS011;3376;42.664;23.346;2023-01-29T05:32:28;5.20;;;4.80;;
6679;SDS011;3376;42.664;23.346;2023-01-29T05:34:55;5.10;;;4.80;;
6679;SDS011;3376;42.664;23.346;2023-01-29T05:37:23;4.13;;;3.93;;
6679;SDS011;3376;42.664;23.346;2023-01-29T05:39:50;4.70;;;4.33;;
6679;SDS011;3376;42.664;23.346;2023-01-29T05:42:17;5.07;;;4.77;;
6679;SDS011;3376;42.664;23.346;2023-01-29T05:44:43;5.87;;;5.57;;
6679;SDS011;3376;42.664;23.346;2023-01-29T05:47:10;5.33;;;5.10;;
6679;SDS011;3376;42.664;23.346;2023-01-29T05:49:37;4.60;;;4.40;;
6679;SDS011;3376;42.664;23.346;2023-01-29T05:52:04;5.13;;;4.83;;
6679;SDS011;3376;42.664;23.346;2023-01-29T05:54:32;4.10;;;3.90;;
6679;SDS011;3376;42.664;23.346;2023-01-29T05:56:58;5.07;;;4.77;;
6679;SDS011;3376;42.664;23.346;2023-01-29T05:59:25;5.10;;;4.80;;
6679;SDS011;3376;42.664;23.346;2023-01-29T06:01:52;4.63;;;4.40;;
6679;SDS011;3376;42.664;23.346;2023-01-29T06:04:18;4.67;;;4.47;;
6679;SDS011;3376;42.664;23.346;2023-01-29T06:06:45;5.27;;;4.87;;
6679;SDS011;3376;42.664;23.346;2023-01-29T06:09:32;5.20;;;4.80;;
6679;SDS011;3376;42.664;23.346;2023-01-29T06:11:58;5.13;;;4.83;;
6679;SDS011;3376;42.664;23.346;2023-01-29T06:14:25;5.30;;;5.10;;
6679;SDS011;3376;42.664;23.346;2023-01-29T06:16:52;5.93;;;5.63;;
6679;SDS011;3376;42.664;23.346;2023-01-29T06:19:19;6.47;;;5.97;;
6679;SDS011;3376;42.664;23.346;2023-01-29T06:21:45;4.90;;;4.60;;
6679;SDS011;3376;42.664;23.346;2023-01-29T06:24:12;6.13;;;5.83;;
6679;SDS011;3376;42.664;23.346;2023-01-29T06:26:40;4.80;;;4.50;;
6679;SDS011;3376;42.664;23.346;2023-01-29T06:29:07;5.87;;;5.47;;
6679;SDS011;3376;42.664;23.346;2023-01-29T06:31:34;6.00;;;5.63;;
6679;SDS011;3376;42.664;23.346;2023-01-29T06:34:01;5.20;;;4.80;;
6679;SDS011;3376;42.664;23.346;2023-01-29T06:36:28;5.43;;;5.13;;
6679;SDS011;3376;42.664;23.346;2023-01-29T06:38:55;5.57;;;5.27;;
6679;SDS011;3376;42.664;23.346;2023-01-29T06:41:22;5.37;;;5.07;;
6679;SDS011;3376;42.664;23.346;2023-01-29T06:43:50;5.80;;;5.47;;
6679;SDS011;3376;42.664;23.346;2023-01-29T06:46:17;6.60;;;6.13;;
6679;SDS011;3376;42.664;23.346;2023-01-29T06:48:44;6.93;;;6.53;;
6679;SDS011;3376;42.664;23.346;2023-01-29T06:51:11;6.80;;;6.40;;
6679;SDS011;3376;42.664;23.346;2023-01-29T06:53:38;7.63;;;7.23;;
6679;SDS011;3376;42.664;23.346;2023-01-29T06:56:05;7.97;;;7.47;;
6679;SDS011;3376;42.664;23.346;2023-01-29T06:58:34;7.13;;;6.70;;
6679;SDS011;3376;42.664;23.346;2023-01-29T07:01:04;6.97;;;6.57;;
6679;SDS011;3376;42.664;23.346;2023-01-29T07:03:31;6.83;;;6.33;;
6679;SDS011;3376;42.664;23.346;2023-01-29T07:05:58;6.93;;;6.43;;
6679;SDS011;3376;42.664;23.346;2023-01-29T07:08:25;9.33;;;7.63;;
6679;SDS011;3376;42.664;23.346;2023-01-29T07:10:52;7.20;;;6.80;;
6679;SDS011;3376;42.664;23.346;2023-01-29T07:13:23;6.87;;;6.47;;
6679;SDS011;3376;42.664;23.346;2023-01-29T07:15:50;7.37;;;6.87;;
6679;SDS011;3376;42.664;23.346;2023-01-29T07:18:18;6.47;;;6.07;;
6679;SDS011;3376;42.664;23.346;2023-01-29T07:20:44;6.03;;;5.63;;
6679;SDS011;3376;42.664;23.346;2023-01-29T07:23:12;7.00;;;6.53;;
6679;SDS011;3376;42.664;23.346;2023-01-29T07:25:39;7.60;;;7.20;;
6679;SDS011;3376;42.664;23.346;2023-01-29T07:28:06;7.13;;;6.73;;
6679;SDS011;3376;42.664;23.346;2023-01-29T07:30:33;7.90;;;7.20;;
6679;SDS011;3376;42.664;23.346;2023-01-29T07:33:01;8.20;;;7.70;;
6679;SDS011;3376;42.664;23.346;2023-01-29T07:35:29;8.57;;;6.63;;
6679;SDS011;3376;42.664;23.346;2023-01-29T07:37:56;7.93;;;7.37;;
6679;SDS011;3376;42.664;23.346;2023-01-29T07:40:23;8.13;;;7.67;;
6679;SDS011;3376;42.664;23.346;2023-01-29T07:42:50;8.23;;;7.67;;
6679;SDS011;3376;42.664;23.346;2023-01-29T07:45:16;8.17;;;7.67;;
6679;SDS011;3376;42.664;23.346;2023-01-29T07:47:43;8.20;;;7.70;;
6679;SDS011;3376;42.664;23.346;2023-01-29T07:50:10;8.27;;;7.53;;
6679;SDS011;3376;42.664;23.346;2023-01-29T07:52:38;7.63;;;7.13;;
6679;SDS011;3376;42.664;23.346;2023-01-29T07:55:05;7.80;;;7.23;;
6679;SDS011;3376;42.664;23.346;2023-01-29T07:57:32;7.83;;;7.17;;
6679;SDS011;3376;42.664;23.346;2023-01-29T07:59:59;7.87;;;7.47;;
6679;SDS011;3376;42.664;23.346;2023-01-29T08:02:26;8.83;;;8.23;;
6679;SDS011;3376;42.664;23.346;2023-01-29T08:04:52;7.67;;;7.27;;
6679;SDS011;3376;42.664;23.346;2023-01-29T08:07:19;8.43;;;7.93;;
6679;SDS011;3376;42.664;23.346;2023-01-29T08:09:47;7.53;;;7.03;;
6679;SDS011;3376;42.664;23.346;2023-01-29T08:12:14;8.57;;;7.77;;
6679;SDS011;3376;42.664;23.346;2023-01-29T08:14:41;8.13;;;7.63;;
6679;SDS011;3376;42.664;23.346;2023-01-29T08:17:09;8.07;;;7.53;;
6679;SDS011;3376;42.664;23.346;2023-01-29T08:19:36;7.37;;;6.97;;
6679;SDS011;3376;42.664;23.346;2023-01-29T08:22:03;7.77;;;7.23;;
6679;SDS011;3376;42.664;23.346;2023-01-29T08:24:30;8.10;;;7.60;;
6679;SDS011;3376;42.664;23.346;2023-01-29T08:26:58;7.97;;;7.47;;
6679;SDS011;3376;42.664;23.346;2023-01-29T08:29:25;8.20;;;7.60;;
6679;SDS011;3376;42.664;23.346;2023-01-29T08:31:52;9.37;;;8.47;;
6679;SDS011;3376;42.664;23.346;2023-01-29T08:34:18;8.10;;;7.47;;
6679;SDS011;3376;42.664;23.346;2023-01-29T08:36:45;9.83;;;8.93;;
6679;SDS011;3376;42.664;23.346;2023-01-29T08:39:12;8.97;;;8.27;;
6679;SDS011;3376;42.664;23.346;2023-01-29T08:41:39;8.63;;;7.93;;
6679;SDS011;3376;42.664;23.346;2023-01-29T08:44:07;9.17;;;8.47;;
6679;SDS011;3376;42.664;23.346;2023-01-29T08:46:34;8.17;;;7.57;;
6679;SDS011;3376;42.664;23.346;2023-01-29T08:49:01;9.17;;;8.47;;
6679;SDS011;3376;42.664;23.346;2023-01-29T08:51:28;9.33;;;8.53;;
6679;SDS011;3376;42.664;23.346;2023-01-29T08:53:54;9.90;;;9.10;;
6679;SDS011;3376;42.664;23.346;2023-01-29T08:56:21;7.70;;;7.10;;
6679;SDS011;3376;42.664;23.346;2023-01-29T08:58:48;9.17;;;8.27;;
6679;SDS011;3376;42.664;23.346;2023-01-29T09:01:16;7.53;;;7.03;;
6679;SDS011;3376;42.664;23.346;2023-01-29T09:03:43;9.03;;;8.23;;
6679;SDS011;3376;42.664;23.346;2023-01-29T09:06:10;8.70;;;8.10;;
6679;SDS011;3376;42.664;23.346;2023-01-29T09:08:38;9.10;;;8.47;;
6679;SDS011;3376;42.664;23.346;2023-01-29T09:11:05;9.03;;;8.40;;
6679;SDS011;3376;42.664;23.346;2023-01-29T09:13:33;9.30;;;8.60;;
6679;SDS011;3376;42.664;23.346;2023-01-29T09:16:00;8.97;;;8.37;;
6679;SDS011;3376;42.664;23.346;2023-01-29T09:18:29;8.90;;;8.10;;
6679;SDS011;3376;42.664;23.346;2023-01-29T09:20:56;10.17;;;9.27;;
6679;SDS011;3376;42.664;23.346;2023-01-29T09:23:23;9.80;;;8.90;;
6679;SDS011;3376;42.664;23.346;2023-01-29T09:25:50;9.37;;;8.83;;
6679;SDS011;3376;42.664;23.346;2023-01-29T09:28:17;8.90;;;8.23;;
6679;SDS011;3376;42.664;23.346;2023-01-29T09:30:43;10.23;;;9.33;;
6679;SDS011;3376;42.664;23.346;2023-01-29T09:33:10;11.20;;;10.23;;
6679;SDS011;3376;42.664;23.346;2023-01-29T09:35:40;9.20;;;8.53;;
6679;SDS011;3376;42.664;23.346;2023-01-29T09:38:07;9.43;;;8.63;;
6679;SDS011;3376;42.664;23.346;2023-01-29T09:40:36;9.57;;;8.87;;
6679;SDS011;3376;42.664;23.346;2023-01-29T09:43:09;10.43;;;9.60;;
6679;SDS011;3376;42.664;23.346;2023-01-29T09:45:40;10.07;;;9.20;;
6679;SDS011;3376;42.664;23.346;2023-01-29T09:48:15;9.80;;;9.03;;
6679;SDS011;3376;42.664;23.346;2023-01-29T09:50:43;9.67;;;8.73;;
6679;SDS011;3376;42.664;23.346;2023-01-29T09:53:16;8.97;;;8.30;;
6679;SDS011;3376;42.664;23.346;2023-01-29T09:55:48;7.93;;;7.43;;
6679;SDS011;3376;42.664;23.346;2023-01-29T09:58:17;10.60;;;9.67;;
6679;SDS011;3376;42.664;23.346;2023-01-29T10:00:50;8.97;;;8.37;;
6679;SDS011;3376;42.664;23.346;2023-01-29T10:03:27;9.67;;;9.03;;
6679;SDS011;3376;42.664;23.346;2023-01-29T10:06:14;9.70;;;8.90;;
6679;SDS011;3376;42.664;23.346;2023-01-29T10:09:15;9.70;;;8.80;;
6679;SDS011;3376;42.664;23.346;2023-01-29T10:12:04;9.20;;;8.60;;
6679;SDS011;3376;42.664;23.346;2023-01-29T10:14:43;10.33;;;9.37;;
6679;SDS011;3376;42.664;23.346;2023-01-29T10:17:20;10.53;;;9.63;;
6679;SDS011;3376;42.664;23.346;2023-01-29T10:20:09;9.80;;;8.90;;
6679;SDS011;3376;42.664;23.346;2023-01-29T10:22:49;10.40;;;9.43;;
6679;SDS011;3376;42.664;23.346;2023-01-29T10:25:25;9.50;;;8.70;;
6679;SDS011;3376;42.664;23.346;2023-01-29T10:27:53;11.50;;;10.03;;
6679;SDS011;3376;42.664;23.346;2023-01-29T10:30:29;11.20;;;10.20;;
6679;SDS011;3376;42.664;23.346;2023-01-29T10:33:00;10.93;;;9.87;;
6679;SDS011;3376;42.664;23.346;2023-01-29T10:35:30;10.93;;;9.90;;
6679;SDS011;3376;42.664;23.346;2023-01-29T10:38:07;11.47;;;10.47;;
6679;SDS011;3376;42.664;23.346;2023-01-29T10:40:45;11.23;;;10.23;;
6679;SDS011;3376;42.664;23.346;2023-01-29T10:43:19;10.57;;;9.73;;
6679;SDS011;3376;42.664;23.346;2023-01-29T10:45:54;11.43;;;10.33;;
6679;SDS011;3376;42.664;23.346;2023-01-29T10:48:38;11.83;;;10.63;;
6679;SDS011;3376;42.664;23.346;2023-01-29T10:51:17;10.03;;;9.23;;
6679;SDS011;3376;42.664;23.346;2023-01-29T10:54:01;11.60;;;9.63;;
6679;SDS011;3376;42.664;23.346;2023-01-29T10:56:42;11.93;;;10.30;;
6679;SDS011;3376;42.664;23.346;2023-01-29T10:59:30;11.77;;;10.63;;
6679;SDS011;3376;42.664;23.346;2023-01-29T11:02:13;14.83;;;11.83;;
6679;SDS011;3376;42.664;23.346;2023-01-29T11:04:42;13.80;;;10.83;;
6679;SDS011;3376;42.664;23.346;2023-01-29T11:07:09;14.33;;;11.53;;
6679;SDS011;3376;42.664;23.346;2023-01-29T11:09:40;12.93;;;11.67;;
6679;SDS011;3376;42.664;23.346;2023-01-29T11:12:12;12.70;;;11.23;;
6679;SDS011;3376;42.664;23.346;2023-01-29T11:14:42;13.80;;;11.00;;
6679;SDS011;3376;42.664;23.346;2023-01-29T11:17:16;13.13;;;11.00;;
6679;SDS011;3376;42.664;23.346;2023-01-29T11:19:44;12.77;;;11.33;;
6679;SDS011;3376;42.664;23.346;2023-01-29T11:22:13;17.17;;;12.60;;
6679;SDS011;3376;42.664;23.346;2023-01-29T11:24:43;15.50;;;12.57;;
6679;SDS011;3376;42.664;23.346;2023-01-29T11:27:13;14.50;;;12.17;;
6679;SDS011;3376;42.664;23.346;2023-01-29T11:29:42;14.53;;;11.30;;
6679;SDS011;3376;42.664;23.346;2023-01-29T11:32:11;12.20;;;11.07;;
6679;SDS011;3376;42.664;23.346;2023-01-29T11:34:56;12.80;;;9.43;;
6679;SDS011;3376;42.664;23.346;2023-01-29T11:37:30;13.80;;;11.17;;
6679;SDS011;3376;42.664;23.346;2023-01-29T11:40:00;12.47;;;11.33;;
6679;SDS011;3376;42.664;23.346;2023-01-29T11:42:29;13.53;;;12.00;;
6679;SDS011;3376;42.664;23.346;2023-01-29T11:44:57;13.00;;;11.00;;
6679;SDS011;3376;42.664;23.346;2023-01-29T11:47:25;13.47;;;11.80;;
6679;SDS011;3376;42.664;23.346;2023-01-29T11:49:54;14.07;;;11.83;;
6679;SDS011;3376;42.664;23.346;2023-01-29T11:52:22;13.17;;;11.77;;
6679;SDS011;3376;42.664;23.346;2023-01-29T11:54:52;15.73;;;11.93;;
6679;SDS011;3376;42.664;23.346;2023-01-29T11:57:29;13.37;;;11.83;;
6679;SDS011;3376;42.664;23.346;2023-01-29T11:59:59;19.73;;;13.43;;
6679;SDS011;3376;42.664;23.346;2023-01-29T12:02:30;13.33;;;12.07;;
6679;SDS011;3376;42.664;23.346;2023-01-29T12:05:02;15.17;;;11.70;;
6679;SDS011;3376;42.664;23.346;2023-01-29T12:07:31;14.70;;;13.00;;
6679;SDS011;3376;42.664;23.346;2023-01-29T12:10:00;16.20;;;12.67;;
6679;SDS011;3376;42.664;23.346;2023-01-29T12:12:33;17.17;;;13.37;;
6679;SDS011;3376;42.664;23.346;2023-01-29T12:15:17;17.63;;;12.93;;
6679;SDS011;3376;42.664;23.346;2023-01-29T12:17:49;14.80;;;11.43;;
6679;SDS011;3376;42.664;23.346;2023-01-29T12:20:24;14.53;;;12.37;;
6679;SDS011;3376;42.664;23.346;2023-01-29T12:22:57;18.33;;;12.90;;
6679;SDS011;3376;42.664;23.346;2023-01-29T12:25:39;14.30;;;12.27;;
6679;SDS011;3376;42.664;23.346;2023-01-29T12:28:17;15.37;;;12.67;;
6679;SDS011;3376;42.664;23.346;2023-01-29T12:30:50;17.97;;;12.47;;
6679;SDS011;3376;42.664;23.346;2023-01-29T12:33:28;13.43;;;12.07;;
6679;SDS011;3376;42.664;23.346;2023-01-29T12:36:06;16.70;;;12.77;;
6679;SDS011;3376;42.664;23.346;2023-01-29T12:38:39;14.00;;;12.53;;
6679;SDS011;3376;42.664;23.346;2023-01-29T12:41:07;14.17;;;12.77;;
6679;SDS011;3376;42.664;23.346;2023-01-29T12:43:48;11.60;;;10.27;;
6679;SDS011;3376;42.664;23.346;2023-01-29T12:46:20;14.30;;;11.93;;
6679;SDS011;3376;42.664;23.346;2023-01-29T12:48:50;15.20;;;12.77;;
6679;SDS011;3376;42.664;23.346;2023-01-29T12:51:21;13.63;;;12.23;;
6679;SDS011;3376;42.664;23.346;2023-01-29T12:53:51;13.97;;;12.27;;
6679;SDS011;3376;42.664;23.346;2023-01-29T12:56:26;14.03;;;12.13;;
6679;SDS011;3376;42.664;23.346;2023-01-29T12:58:59;13.60;;;12.40;;
6679;SDS011;3376;42.664;23.346;2023-01-29T13:01:30;14.10;;;12.73;;
6679;SDS011;3376;42.664;23.346;2023-01-29T13:04:02;14.57;;;13.17;;
6679;SDS011;3376;42.664;23.346;2023-01-29T13:06:33;13.97;;;12.50;;
6679;SDS011;3376;42.664;23.346;2023-01-29T13:09:07;13.47;;;12.00;;
6679;SDS011;3376;42.664;23.346;2023-01-29T13:11:39;12.90;;;11.57;;
6679;SDS011;3376;42.664;23.346;2023-01-29T13:14:15;13.67;;;12.27;;
6679;SDS011;3376;42.664;23.346;2023-01-29T13:16:48;13.00;;;11.13;;
6679;SDS011;3376;42.664;23.346;2023-01-29T13:19:20;13.30;;;12.00;;
6679;SDS011;3376;42.664;23.346;2023-01-29T13:21:52;14.43;;;12.57;;
6679;SDS011;3376;42.664;23.346;2023-01-29T13:24:22;14.80;;;13.30;;
6679;SDS011;3376;42.664;23.346;2023-01-29T13:26:50;14.87;;;12.80;;
6679;SDS011;3376;42.664;23.346;2023-01-29T13:29:23;15.93;;;12.73;;
6679;SDS011;3376;42.664;23.346;2023-01-29T13:31:52;15.23;;;13.63;;
6679;SDS011;3376;42.664;23.346;2023-01-29T13:34:21;13.87;;;12.50;;
6679;SDS011;3376;42.664;23.346;2023-01-29T13:36:50;13.80;;;12.40;;
6679;SDS011;3376;42.664;23.346;2023-01-29T13:39:21;14.00;;;12.57;;
6679;SDS011;3376;42.664;23.346;2023-01-29T13:41:50;12.87;;;11.57;;
6679;SDS011;3376;42.664;23.346;2023-01-29T13:44:19;19.27;;;14.10;;
6679;SDS011;3376;42.664;23.346;2023-01-29T13:46:52;14.57;;;13.17;;
6679;SDS011;3376;42.664;23.346;2023-01-29T13:49:26;11.07;;;10.27;;
6679;SDS011;3376;42.664;23.346;2023-01-29T13:52:13;11.00;;;10.00;;
6679;SDS011;3376;42.664;23.346;2023-01-29T13:54:48;11.53;;;10.60;;
6679;SDS011;3376;42.664;23.346;2023-01-29T13:57:31;12.13;;;10.90;;
6679;SDS011;3376;42.664;23.346;2023-01-29T14:11:59;14.63;;;10.90;;
6679;SDS011;3376;42.664;23.346;2023-01-29T14:17:16;12.27;;;10.97;;
6679;SDS011;3376;42.664;23.346;2023-01-29T14:19:49;10.77;;;9.83;;
6679;SDS011;3376;42.664;23.346;2023-01-29T14:22:18;12.17;;;10.50;;
6679;SDS011;3376;42.664;23.346;2023-01-29T14:24:47;12.50;;;11.30;;
6679;SDS011;3376;42.664;23.346;2023-01-29T14:27:17;12.20;;;10.90;;
6679;SDS011;3376;42.664;23.346;2023-01-29T14:29:47;13.50;;;12.10;;
6679;SDS011;3376;42.664;23.346;2023-01-29T14:32:17;14.13;;;12.43;;
6679;SDS011;3376;42.664;23.346;2023-01-29T14:34:46;15.23;;;12.13;;
6679;SDS011;3376;42.664;23.346;2023-01-29T14:37:19;11.37;;;10.20;;
6679;SDS011;3376;42.664;23.346;2023-01-29T14:39:58;14.23;;;12.63;;
6679;SDS011;3376;42.664;23.346;2023-01-29T14:42:38;15.47;;;12.47;;
6679;SDS011;3376;42.664;23.346;2023-01-29T14:45:20;14.43;;;12.33;;
6679;SDS011;3376;42.664;23.346;2023-01-29T14:47:59;15.77;;;12.87;;
6679;SDS011;3376;42.664;23.346;2023-01-29T14:50:49;15.27;;;13.17;;
6679;SDS011;3376;42.664;23.346;2023-01-29T14:53:38;12.93;;;11.60;;
6679;SDS011;3376;42.664;23.346;2023-01-29T14:56:11;15.40;;;13.63;;
6679;SDS011;3376;42.664;23.346;2023-01-29T14:58:42;16.30;;;14.03;;
6679;SDS011;3376;42.664;23.346;2023-01-29T15:01:17;20.73;;;15.03;;
6679;SDS011;3376;42.664;23.346;2023-01-29T15:03:47;20.37;;;15.13;;
6679;SDS011;3376;42.664;23.346;2023-01-29T15:06:20;20.53;;;14.50;;
6679;SDS011;3376;42.664;23.346;2023-01-29T15:08:54;25.60;;;16.83;;
6679;SDS011;3376;42.664;23.346;2023-01-29T15:11:30;24.70;;;17.40;;
6679;SDS011;3376;42.664;23.346;2023-01-29T15:14:07;22.40;;;16.47;;
6679;SDS011;3376;42.664;23.346;2023-01-29T15:16:50;21.70;;;16.27;;
6679;SDS011;3376;42.664;23.346;2023-01-29T15:19:26;20.07;;;16.07;;
6679;SDS011;3376;42.664;23.346;2023-01-29T15:22:02;22.40;;;16.23;;
6679;SDS011;3376;42.664;23.346;2023-01-29T15:24:30;22.50;;;16.47;;
6679;SDS011;3376;42.664;23.346;2023-01-29T15:26:57;19.50;;;14.80;;
6679;SDS011;3376;42.664;23.346;2023-01-29T15:29:24;20.57;;;14.67;;
6679;SDS011;3376;42.664;23.346;2023-01-29T15:31:53;18.13;;;14.20;;
6679;SDS011;3376;42.664;23.346;2023-01-29T15:34:20;19.17;;;13.93;;